Time,TemperatureF,DewpointF,PressureIn,WindDirection,WindDirectionDegrees,WindSpeedMPH,WindSpeedGustMPH,Humidity,HourlyPrecipIn,Conditions,Clouds,dailyrainin,SoftwareType,DateUTC
2013-03-04 00:01:00,28.3,14.0,30.00,East,87,5.0,-999.0,55,-99.99,,,0.00,weatherlink.com 1.10,2013-03-04 06:01:00,
2013-03-04 00:16:00,28.2,14.0,30.00,ESE,110,5.0,-999.0,56,-99.99,,,0.00,weatherlink.com 1.10,2013-03-04 06:16:00,
2013-03-04 00:30:00,28.0,14.0,30.00,ESE,110,4.0,-999.0,56,-99.99,,,0.00,weatherlink.com 1.10,2013-03-04 06:30:00,
2013-03-04 00:45:00,27.9,14.0,30.00,SE,130,7.0,-999.0,56,-99.99,,,0.00,weatherlink.com 1.10,2013-03-04 06:45:00,
2013-03-04 00:59:00,27.8,15.0,30.00,ENE,67,4.0,-999.0,57,-99.99,,,0.00,weatherlink.com 1.10,2013-03-04 06:59:00,
2013-03-04 01:13:00,27.8,14.0,29.99,East,98,6.0,-999.0,56,-99.99,,,0.00,weatherlink.com 1.10,2013-03-04 07:13:00,
2013-03-04 01:27:00,27.7,14.0,29.99,ENE,77,4.0,-999.0,57,-99.99,,,0.00,weatherlink.com 1.10,2013-03-04 07:27:00,
2013-03-04 01:42:00,27.6,14.0,29.99,ENE,72,6.0,-999.0,57,-99.99,,,0.00,weatherlink.com 1.10,2013-03-04 07:42:00,
2013-03-04 01:56:00,27.6,15.0,29.98,ESE,116,2.0,-999.0,58,-99.99,,,0.00,weatherlink.com 1.10,2013-03-04 07:56:00,
2013-03-04 02:10:00,27.5,15.0,29.98,ESE,102,6.0,-999.0,58,-99.99,,,0.00,weatherlink.com 1.10,2013-03-04 08:10:00,
2013-03-04 02:25:00,27.5,15.0,29.97,ESE,104,5.0,-999.0,58,-99.99,,,0.00,weatherlink.com 1.10,2013-03-04 08:25:00,
2013-03-04 02:39:00,27.5,15.0,29.97,East,80,6.0,-999.0,58,-99.99,,,0.00,weatherlink.com 1.10,2013-03-04 08:39:00,
2013-03-04 02:53:00,27.3,15.0,29.96,ESE,116,7.0,-999.0,59,-99.99,,,0.00,weatherlink.com 1.10,2013-03-04 08:53:00,
2013-03-04 03:08:00,27.1,15.0,29.95,ENE,71,7.0,-999.0,59,-99.99,,,0.00,weatherlink.com 1.10,2013-03-04 09:08:00,
2013-03-04 03:22:00,27.1,15.0,29.95,ENE,76,12.0,-999.0,60,-99.99,,,0.00,weatherlink.com 1.10,2013-03-04 09:22:00,
2013-03-04 03:36:00,26.9,15.0,29.95,ENE,71,11.0,-999.0,60,-99.99,,,0.00,weatherlink.com 1.10,2013-03-04 09:36:00,
2013-03-04 03:50:00,26.6,15.0,29.94,East,87,12.0,-999.0,62,-99.99,,,0.00,weatherlink.com 1.10,2013-03-04 09:50:00,
2013-03-04 04:05:00,26.3,16.0,29.95,East,92,13.0,-999.0,64,-99.99,,,0.00,weatherlink.com 1.10,2013-03-04 10:05:00,
2013-03-04 04:19:00,25.7,17.0,29.95,ENE,71,12.0,-999.0,69,-99.99,,,0.00,weatherlink.com 1.10,2013-03-04 10:19:00,
2013-03-04 04:34:00,25.0,18.0,29.95,ENE,77,11.0,-999.0,74,-99.99,,,0.00,weatherlink.com 1.10,2013-03-04 10:34:00,
2013-03-04 04:48:00,24.9,18.0,29.95,East,97,6.0,-999.0,74,-99.99,,,0.00,weatherlink.com 1.10,2013-03-04 10:48:00,
2013-03-04 05:02:00,24.8,18.0,29.95,East,98,10.0,-999.0,74,-99.99,,,0.00,weatherlink.com 1.10,2013-03-04 11:02:00,
2013-03-04 05:16:00,24.5,18.0,29.96,East,83,5.0,-999.0,76,-99.99,,,0.00,weatherlink.com 1.10,2013-03-04 11:16:00,
2013-03-04 05:31:00,24.0,19.0,29.96,ENE,78,7.0,-999.0,80,-99.99,,,0.00,weatherlink.com 1.10,2013-03-04 11:31:00,
2013-03-04 05:45:00,23.5,19.0,29.97,ENE,77,10.0,-999.0,82,-99.99,,,0.00,weatherlink.com 1.10,2013-03-04 11:45:00,
2013-03-04 06:00:00,23.3,19.0,29.97,ENE,75,5.0,-999.0,84,-99.99,,,0.00,weatherlink.com 1.10,2013-03-04 12:00:00,
2013-03-04 06:14:00,23.1,19.0,29.96,ESE,115,10.0,-999.0,85,-99.99,,,0.00,weatherlink.com 1.10,2013-03-04 12:14:00,
2013-03-04 06:29:00,23.0,21.0,29.96,ENE,77,7.0,-999.0,93,-99.99,,,0.00,weatherlink.com 1.10,2013-03-04 12:29:00,
2013-03-04 06:43:00,22.9,19.0,29.96,ENE,75,7.0,-999.0,86,-99.99,,,0.00,weatherlink.com 1.10,2013-03-04 12:43:00,
2013-03-04 06:57:00,22.9,19.0,29.96,NE,49,10.0,-999.0,86,-99.99,,,0.00,weatherlink.com 1.10,2013-03-04 12:57:00,
2013-03-04 07:12:00,22.9,19.0,29.96,East,92,10.0,-999.0,86,-99.99,,,0.00,weatherlink.com 1.10,2013-03-04 13:12:00,
2013-03-04 07:26:00,22.9,19.0,29.96,East,95,6.0,-999.0,86,-99.99,,,0.00,weatherlink.com 1.10,2013-03-04 13:26:00,
2013-03-04 07:40:00,23.0,19.0,29.96,East,99,13.0,-999.0,86,-99.99,,,0.00,weatherlink.com 1.10,2013-03-04 13:40:00,
2013-03-04 07:55:00,23.0,19.0,29.97,ENE,76,12.0,-999.0,86,-99.99,,,0.00,weatherlink.com 1.10,2013-03-04 13:55:00,
2013-03-04 08:09:00,23.1,20.0,29.97,ESE,111,12.0,-999.0,86,-99.99,,,0.00,weatherlink.com 1.10,2013-03-04 14:09:00,
2013-03-04 08:23:00,23.3,20.0,29.97,East,99,6.0,-999.0,86,-99.99,,,0.00,weatherlink.com 1.10,2013-03-04 14:23:00,
2013-03-04 08:37:00,23.4,20.0,29.97,East,81,12.0,-999.0,86,-99.99,,,0.00,weatherlink.com 1.10,2013-03-04 14:37:00,
2013-03-04 08:52:00,23.5,20.0,29.97,ENE,76,11.0,-999.0,86,-99.99,,,0.00,weatherlink.com 1.10,2013-03-04 14:52:00,
2013-03-04 09:06:00,23.8,20.0,29.97,East,80,12.0,-999.0,85,-99.99,,,0.00,weatherlink.com 1.10,2013-03-04 15:06:00,
2013-03-04 09:20:00,24.0,20.0,29.96,East,87,7.0,-999.0,85,-99.99,,,0.00,weatherlink.com 1.10,2013-03-04 15:20:00,
2013-03-04 09:34:00,24.0,20.0,29.96,East,81,12.0,-999.0,85,-99.99,,,0.00,weatherlink.com 1.10,2013-03-04 15:34:00,
2013-03-04 09:49:00,24.2,20.0,29.96,ESE,123,8.0,-999.0,84,-99.99,,,0.00,weatherlink.com 1.10,2013-03-04 15:49:00,
2013-03-04 10:03:00,24.3,20.0,29.96,ENE,69,12.0,-999.0,84,-99.99,,,0.00,weatherlink.com 1.10,2013-03-04 16:03:00,
2013-03-04 10:17:00,24.5,20.0,29.97,ENE,69,10.0,-999.0,83,-99.99,,,0.00,weatherlink.com 1.10,2013-03-04 16:17:00,
2013-03-04 10:31:00,24.8,20.0,29.96,ESE,108,12.0,-999.0,82,-99.99,,,0.00,weatherlink.com 1.10,2013-03-04 16:31:00,
2013-03-04 10:46:00,25.0,20.0,29.96,ESE,108,10.0,-999.0,82,-99.99,,,0.00,weatherlink.com 1.10,2013-03-04 16:46:00,
2013-03-04 11:00:00,25.0,20.0,29.96,East,91,12.0,-999.0,82,-99.99,,,0.00,weatherlink.com 1.10,2013-03-04 17:00:00,
2013-03-04 11:14:00,24.8,20.0,29.96,ENE,77,10.0,-999.0,82,-99.99,,,0.00,weatherlink.com 1.10,2013-03-04 17:14:00,
2013-03-04 11:29:00,24.9,20.0,29.96,ENE,73,10.0,-999.0,82,-99.99,,,0.00,weatherlink.com 1.10,2013-03-04 17:29:00,
2013-03-04 11:43:00,25.1,20.0,29.96,East,79,6.0,-999.0,82,-99.99,,,0.00,weatherlink.com 1.10,2013-03-04 17:43:00,
2013-03-04 11:57:00,25.2,20.0,29.96,East,81,19.0,-999.0,81,-99.99,,,0.00,weatherlink.com 1.10,2013-03-04 17:57:00,
2013-03-04 12:12:00,25.1,20.0,29.96,East,98,11.0,-999.0,81,-99.99,,,0.00,weatherlink.com 1.10,2013-03-04 18:12:00,
2013-03-04 12:26:00,25.1,20.0,29.97,East,96,13.0,-999.0,79,-99.99,,,0.00,weatherlink.com 1.10,2013-03-04 18:26:00,
2013-03-04 12:40:00,25.2,19.0,29.97,ESE,112,8.0,-999.0,78,-99.99,,,0.00,weatherlink.com 1.10,2013-03-04 18:40:00,
2013-03-04 12:55:00,25.3,19.0,29.96,East,100,9.0,-999.0,78,-99.99,,,0.00,weatherlink.com 1.10,2013-03-04 18:55:00,
2013-03-04 13:09:00,25.6,19.0,29.96,ENE,75,6.0,-999.0,76,-99.99,,,0.00,weatherlink.com 1.10,2013-03-04 19:09:00,
2013-03-04 13:23:00,26.1,19.0,29.96,ESE,106,11.0,-999.0,74,-99.99,,,0.00,weatherlink.com 1.10,2013-03-04 19:23:00,
2013-03-04 13:37:00,26.4,19.0,29.96,East,94,7.0,-999.0,72,-99.99,,,0.00,weatherlink.com 1.10,2013-03-04 19:37:00,
2013-03-04 13:52:00,26.6,18.0,29.96,East,96,6.0,-999.0,69,-99.99,,,0.00,weatherlink.com 1.10,2013-03-04 19:52:00,
2013-03-04 14:06:00,26.8,18.0,29.97,NE,56,6.0,-999.0,68,-99.99,,,0.00,weatherlink.com 1.10,2013-03-04 20:06:00,
2013-03-04 14:20:00,26.9,17.0,29.96,East,96,13.0,-999.0,65,-99.99,,,0.00,weatherlink.com 1.10,2013-03-04 20:20:00,
2013-03-04 14:34:00,27.0,16.0,29.96,ENE,67,14.0,-999.0,62,-99.99,,,0.00,weatherlink.com 1.10,2013-03-04 20:34:00,
2013-03-04 14:49:00,27.0,15.0,29.96,ESE,118,7.0,-999.0,61,-99.99,,,0.00,weatherlink.com 1.10,2013-03-04 20:49:00,
2013-03-04 15:03:00,27.1,15.0,29.96,ESE,116,10.0,-999.0,60,-99.99,,,0.00,weatherlink.com 1.10,2013-03-04 21:03:00,
2013-03-04 15:17:00,27.1,15.0,29.97,East,100,6.0,-999.0,60,-99.99,,,0.00,weatherlink.com 1.10,2013-03-04 21:17:00,
2013-03-04 15:31:00,26.9,15.0,29.98,ENE,67,13.0,-999.0,61,-99.99,,,0.00,weatherlink.com 1.10,2013-03-04 21:31:00,
2013-03-04 15:45:00,26.7,15.0,29.98,East,80,4.0,-999.0,61,-99.99,,,0.00,weatherlink.com 1.10,2013-03-04 21:45:00,
2013-03-04 16:00:00,26.5,15.0,29.98,SE,130,6.0,-999.0,61,-99.99,,,0.00,weatherlink.com 1.10,2013-03-04 22:00:00,
2013-03-04 16:14:00,26.2,15.0,29.98,East,101,8.0,-999.0,62,-99.99,,,0.00,weatherlink.com 1.10,2013-03-04 22:14:00,
2013-03-04 16:28:00,26.0,15.0,29.98,East,98,6.0,-999.0,64,-99.99,,,0.00,weatherlink.com 1.10,2013-03-04 22:28:00,
2013-03-04 16:42:00,25.9,16.0,29.98,ENE,71,6.0,-999.0,66,-99.99,,,0.00,weatherlink.com 1.10,2013-03-04 22:42:00,
2013-03-04 16:57:00,25.7,16.0,29.98,East,79,9.0,-999.0,66,-99.99,,,0.00,weatherlink.com 1.10,2013-03-04 22:57:00,
2013-03-04 17:11:00,25.6,17.0,29.98,East,81,7.0,-999.0,69,-99.99,,,0.00,weatherlink.com 1.10,2013-03-04 23:11:00,
2013-03-04 17:25:00,25.4,17.0,29.99,ENE,76,4.0,-999.0,71,-99.99,,,0.00,weatherlink.com 1.10,2013-03-04 23:25:00,
2013-03-04 17:39:00,25.3,18.0,29.99,East,96,4.0,-999.0,72,-99.99,,,0.00,weatherlink.com 1.10,2013-03-04 23:39:00,
2013-03-04 17:54:00,25.2,18.0,30.00,ENE,71,6.0,-999.0,74,-99.99,,,0.00,weatherlink.com 1.10,2013-03-04 23:54:00,
2013-03-04 18:08:00,25.0,19.0,30.00,East,87,5.0,-999.0,76,-99.99,,,0.00,weatherlink.com 1.10,2013-03-05 00:08:00,
2013-03-04 18:22:00,24.8,19.0,30.00,East,88,8.0,-999.0,79,-99.99,,,0.00,weatherlink.com 1.10,2013-03-05 00:22:00,
2013-03-04 18:37:00,24.5,20.0,30.00,East,84,4.0,-999.0,81,-99.99,,,0.00,weatherlink.com 1.10,2013-03-05 00:37:00,
2013-03-04 18:51:00,24.3,20.0,30.01,ENE,60,5.0,-999.0,82,-99.99,,,0.00,weatherlink.com 1.10,2013-03-05 00:51:00,
2013-03-04 19:05:00,24.0,20.0,30.01,East,87,5.0,-999.0,84,-99.99,,,0.00,weatherlink.com 1.10,2013-03-05 01:05:00,
2013-03-04 19:20:00,23.9,20.0,30.03,East,79,5.0,-999.0,84,-99.99,,,0.00,weatherlink.com 1.10,2013-03-05 01:20:00,
2013-03-04 19:34:00,23.9,20.0,30.03,East,86,3.0,-999.0,85,-99.99,,,0.00,weatherlink.com 1.10,2013-03-05 01:34:00,
2013-03-04 19:48:00,23.9,20.0,30.04,ENE,74,2.0,-999.0,85,-99.99,,,0.00,weatherlink.com 1.10,2013-03-05 01:48:00,
2013-03-04 20:03:00,23.9,20.0,30.04,ENE,77,4.0,-999.0,85,-99.99,,,0.00,weatherlink.com 1.10,2013-03-05 02:03:00,
2013-03-04 20:17:00,23.9,20.0,30.04,East,85,1.0,-999.0,86,-99.99,,,0.00,weatherlink.com 1.10,2013-03-05 02:17:00,
2013-03-04 20:31:00,23.9,20.0,30.05,ENE,77,1.0,-999.0,86,-99.99,,,0.00,weatherlink.com 1.10,2013-03-05 02:31:00,
2013-03-04 20:45:00,23.8,20.0,30.05,ENE,71,5.0,-999.0,86,-99.99,,,0.00,weatherlink.com 1.10,2013-03-05 02:45:00,
2013-03-04 21:00:00,23.8,20.0,30.05,NE,53,2.0,-999.0,87,-99.99,,,0.00,weatherlink.com 1.10,2013-03-05 03:00:00,
2013-03-04 21:14:00,23.8,20.0,30.05,ENE,65,3.0,-999.0,87,-99.99,,,0.00,weatherlink.com 1.10,2013-03-05 03:14:00,
2013-03-04 21:28:00,23.8,20.0,30.05,East,85,4.0,-999.0,87,-99.99,,,0.00,weatherlink.com 1.10,2013-03-05 03:28:00,
2013-03-04 21:43:00,23.8,20.0,30.04,East,99,3.0,-999.0,87,-99.99,,,0.00,weatherlink.com 1.10,2013-03-05 03:43:00,
2013-03-04 21:57:00,23.8,21.0,30.05,East,79,6.0,-999.0,88,-99.99,,,0.00,weatherlink.com 1.10,2013-03-05 03:57:00,
2013-03-04 22:11:00,23.9,21.0,30.05,East,87,4.0,-999.0,88,-99.99,,,0.00,weatherlink.com 1.10,2013-03-05 04:11:00,
2013-03-04 22:25:00,24.0,21.0,30.05,ESE,108,7.0,-999.0,88,-99.99,,,0.00,weatherlink.com 1.10,2013-03-05 04:25:00,
2013-03-04 22:40:00,24.0,21.0,30.04,ESE,113,5.0,-999.0,88,-99.99,,,0.00,weatherlink.com 1.10,2013-03-05 04:40:00,
2013-03-04 22:54:00,24.1,21.0,30.04,East,82,3.0,-999.0,87,-99.99,,,0.00,weatherlink.com 1.10,2013-03-05 04:54:00,
2013-03-04 23:08:00,24.1,21.0,30.03,ENE,77,5.0,-999.0,88,-99.99,,,0.00,weatherlink.com 1.10,2013-03-05 05:08:00,
2013-03-04 23:22:00,24.1,21.0,30.02,ENE,75,5.0,-999.0,88,-99.99,,,0.00,weatherlink.com 1.10,2013-03-05 05:22:00,
2013-03-04 23:36:00,24.1,21.0,30.02,East,91,6.0,-999.0,88,-99.99,,,0.00,weatherlink.com 1.10,2013-03-05 05:36:00,
2013-03-04 23:51:00,24.2,21.0,30.02,East,83,5.0,-999.0,88,-99.99,,,0.00,weatherlink.com 1.10,2013-03-05 05:51:00,